Minerva Atlantica — ZCPR7 — position and weather

sailwx.info

Track history (hours):
 
Tides and Currents Weather Stations Pressure Air Temp Water Temp Dewpoint Dewpoint Depression Visibility Wind Speed Wind Dir Waves Ship Positions

Minerva Atlantica

Last reported at 2016-Aug-24 04:32 UTC. Time now 2016-Aug-24 04:52 UTC.
Position N 54°05' E 007°28'.

Length 250 m; draft 12 m.

Type: Ship (hazmat cat B). MMSI: 319161000.

Date/timePositionNaut miles runAvg speedWind from/ knotsBaromVisibWave heightAir tempDewpointWater temp
2016-Aug-24 04:32N 54°05' E 007°28'0 0.1
2016-Aug-24 03:32N 54°05' E 007°28'0 0.1
2016-Aug-24 02:29N 54°05' E 007°28'0 0.0
2016-Aug-24 01:32N 54°05' E 007°28'0 0.0
2016-Aug-24 00:32N 54°05' E 007°28'0 0.0
2016-Aug-23 23:32N 54°05' E 007°28'0 0.1
2016-Aug-23 22:32N 54°05' E 007°28'0 0.3
2016-Aug-23 21:32N 54°05' E 007°28'0 0.0
2016-Aug-23 20:32N 54°05' E 007°28'0 0.0
2016-Aug-23 19:32N 54°05' E 007°28'0 0.0
2016-Aug-23 18:32N 54°05' E 007°28'0 0.0
2016-Aug-23 17:32N 54°05' E 007°28'0 0.0
2016-Aug-23 16:32N 54°05' E 007°28'0 0.2
2016-Aug-23 15:32N 54°05' E 007°28'0 0.0
2016-Aug-23 14:23N 54°05' E 007°28'0 0.0
2016-Aug-23 13:32N 54°05' E 007°28'0 0.0
2016-Aug-23 12:29N 54°05' E 007°28'0 0.0
2016-Aug-23 11:32N 54°05' E 007°28'0 0.0
2016-Aug-23 10:33N 54°05' E 007°28'0 0.0
2016-Aug-23 09:32N 54°05' E 007°28'0 0.2
2016-Aug-23 08:32N 54°05' E 007°28'0 0.1
2016-Aug-23 07:32N 54°05' E 007°28'0 0.0
2016-Aug-23 06:32N 54°05' E 007°28'0 0.0
2016-Aug-23 05:32N 54°05' E 007°28'0 0.1
2016-Aug-23 04:32N 54°05' E 007°28'0 0.2
2016-Aug-23 03:32N 54°05' E 007°28'0 0.1
2016-Aug-23 02:32N 54°05' E 007°28'0 0.0
2016-Aug-23 01:32N 54°05' E 007°28'0 0.0
2016-Aug-23 00:32N 54°05' E 007°28'0 0.0
2016-Aug-22 23:32N 54°05' E 007°28'2 2.6
2016-Aug-22 22:33N 54°07' E 007°28'1211.8
2016-Aug-22 21:33N 54°09' E 007°08'1312.9
2016-Aug-22 20:33N 54°09' E 006°46'1312.4
2016-Aug-22 19:29N 54°09' E 006°24'1311.8
2016-Aug-22 18:24N 54°07' E 006°02'1011.7
2016-Aug-22 17:32N 54°06' E 005°45'1211.7
2016-Aug-22 16:33N 54°04' E 005°26'1211.8
2016-Aug-22 15:33N 54°02' E 005°06'1211.9
2016-Aug-22 14:33N 54°01' E 004°46'14713.4
2016-Aug-22 03:33N 54°20' E 000°37'1312.9
2016-Aug-22 02:34N 54°26' E 000°17'1212.5
2016-Aug-22 01:34N 54°32' W 000°02'1212.1
2016-Aug-22 00:33N 54°37' W 000°21'2411.9
2016-Aug-21 22:33N 54°45' W 000°60'10 0.3
2016-Aug-20 18:29N 54°38' W 001°10'6 6.8
2016-Aug-20 17:33N 54°43' W 001°05'3 3.3
2016-Aug-20 16:33N 54°44' W 000°60'4 3.9
2016-Aug-20 15:33N 54°43' W 000°53'0 0.1
2016-Aug-20 14:28N 54°44' W 000°53'0 0.0
2016-Aug-20 13:28N 54°44' W 000°53'0 0.0
2016-Aug-20 12:31N 54°44' W 000°53'0 0.0
2016-Aug-20 11:31N 54°44' W 000°53'0 0.0
2016-Aug-20 10:13N 54°44' W 000°53'0 0.0
2016-Aug-20 09:31N 54°44' W 000°53'0 0.0
2016-Aug-20 08:31N 54°44' W 000°53'0 0.0
2016-Aug-20 07:22N 54°44' W 000°53'0 0.1
2016-Aug-20 06:31N 54°44' W 000°53'0 0.0
2016-Aug-20 05:22N 54°43' W 000°53'0 0.2
2016-Aug-20 04:22N 54°43' W 000°53'0 0.1
2016-Aug-20 03:25N 54°43' W 000°53'0 0.2
2016-Aug-20 02:25N 54°44' W 000°53'0 0.0
2016-Aug-20 01:28N 54°44' W 000°53'0 0.0
2016-Aug-20 00:28N 54°43' W 000°53'0 0.0
2016-Aug-19 23:28N 54°43' W 000°53'0 0.0
2016-Aug-19 22:25N 54°43' W 000°53'0 0.0
2016-Aug-19 20:31N 54°43' W 000°53'0 0.0
2016-Aug-19 19:31N 54°43' W 000°53'0 0.0
2016-Aug-19 18:19N 54°43' W 000°53'0 0.1
2016-Aug-19 17:31N 54°43' W 000°53'0 0.0
2016-Aug-19 16:31N 54°43' W 000°53'0 0.0
2016-Aug-19 15:31N 54°43' W 000°53'0 0.0
2016-Aug-19 13:25N 54°43' W 000°53'0 0.0
2016-Aug-19 12:25N 54°43' W 000°53'0 0.0
2016-Aug-19 11:25N 54°43' W 000°53'0 0.0
2016-Aug-19 10:28N 54°43' W 000°53'0 0.0
2016-Aug-19 09:13N 54°43' W 000°53'0 0.0
2016-Aug-19 08:31N 54°43' W 000°53'0 0.0
2016-Aug-19 07:31N 54°43' W 000°53'0 0.1
2016-Aug-19 06:31N 54°43' W 000°53'0 0.1
2016-Aug-19 05:31N 54°43' W 000°53'0 0.0
2016-Aug-19 04:31N 54°43' W 000°53'0 0.0
2016-Aug-19 03:31N 54°43' W 000°53'0 0.0
2016-Aug-19 02:31N 54°43' W 000°53'0 0.1
2016-Aug-19 01:22N 54°43' W 000°53'0 0.0
2016-Aug-19 00:25N 54°43' W 000°53'0 0.0
2016-Aug-18 23:25N 54°43' W 000°53'0 0.0
2016-Aug-18 22:25N 54°43' W 000°53'0 0.0
2016-Aug-18 21:28N 54°43' W 000°53'0 0.0
2016-Aug-18 20:28N 54°43' W 000°53'0 0.0
2016-Aug-18 19:25N 54°43' W 000°53'0 0.0
2016-Aug-18 18:31N 54°43' W 000°53'0 0.1
2016-Aug-18 17:25N 54°43' W 000°53'0 0.1
2016-Aug-18 16:31N 54°43' W 000°53'0 0.0
2016-Aug-18 15:28N 54°43' W 000°53'0 0.0
2016-Aug-18 14:31N 54°43' W 000°53'0 0.0
2016-Aug-18 13:19N 54°43' W 000°53'0 0.0
2016-Aug-18 12:22N 54°43' W 000°53'0 0.0
2016-Aug-18 11:31N 54°43' W 000°53'0 0.0
2016-Aug-18 10:19N 54°43' W 000°53'0 0.0
2016-Aug-18 09:25N 54°43' W 000°53'0 0.0
2016-Aug-18 08:07N 54°43' W 000°53'0 0.0
2016-Aug-18 07:25N 54°43' W 000°53'0 0.0
2016-Aug-18 06:28N 54°43' W 000°53'0 0.2
2016-Aug-18 05:25N 54°43' W 000°53'0 0.1
2016-Aug-18 04:28N 54°43' W 000°53'0 0.0
2016-Aug-18 03:31N 54°43' W 000°53'0 0.0
2016-Aug-18 02:31N 54°43' W 000°53'0 0.1
2016-Aug-18 01:31N 54°43' W 000°53'0 0.2
2016-Aug-18 00:28N 54°43' W 000°53'0 0.0
2016-Aug-17 23:19N 54°43' W 000°53'0 0.0
2016-Aug-17 22:31N 54°43' W 000°53'0 0.0
2016-Aug-17 21:31N 54°43' W 000°53'0 0.0
2016-Aug-17 20:22N 54°43' W 000°53'0 0.0
2016-Aug-17 19:25N 54°43' W 000°53'0 0.0
2016-Aug-17 18:25N 54°43' W 000°53'0 0.0
2016-Aug-17 17:25N 54°43' W 000°53'0 0.0
2016-Aug-17 16:28N 54°43' W 000°53'0 0.2
2016-Aug-17 15:31N 54°43' W 000°53'0 0.1
2016-Aug-17 14:28N 54°43' W 000°53'0 0.1
2016-Aug-17 13:31N 54°43' W 000°53'0 0.2
2016-Aug-17 12:31N 54°43' W 000°53'0 0.0
2016-Aug-17 11:31N 54°43' W 000°53'0 0.0
2016-Aug-17 10:31N 54°43' W 000°53'0 0.0
2016-Aug-17 09:31N 54°43' W 000°53'0 0.0
2016-Aug-17 08:31N 54°43' W 000°53'0 0.0
2016-Aug-17 07:31N 54°43' W 000°53'0 0.0
2016-Aug-17 06:19N 54°43' W 000°53'0 0.2
2016-Aug-17 05:25N 54°43' W 000°53'0 0.1
2016-Aug-17 04:25N 54°43' W 000°53'0 0.0
2016-Aug-17 03:31N 54°43' W 000°53'0 0.0
2016-Aug-17 02:28N 54°43' W 000°53'0 0.0
2016-Aug-17 01:28N 54°43' W 000°53'0 0.2
2016-Aug-17 00:28N 54°43' W 000°53'0 0.0
2016-Aug-16 20:19N 54°43' W 000°53'0 0.0
2016-Aug-16 19:31N 54°43' W 000°53'0 0.0
2016-Aug-16 18:31N 54°43' W 000°53'0 0.0
2016-Aug-16 17:31N 54°43' W 000°53'0 0.0
2016-Aug-16 16:31N 54°43' W 000°53'0 0.0
2016-Aug-16 15:28N 54°43' W 000°53'0 0.0
2016-Aug-16 14:25N 54°43' W 000°53'0 0.0
2016-Aug-16 13:25N 54°43' W 000°53'0 0.0
2016-Aug-16 11:28N 54°43' W 000°53'0 0.0
2016-Aug-16 10:10N 54°43' W 000°53'0 0.0
2016-Aug-16 09:31N 54°43' W 000°53'0 0.0
2016-Aug-16 08:16N 54°43' W 000°53'0 0.5
2016-Aug-16 07:33N 54°44' W 000°53'25 8.3
2016-Aug-16 04:33N 54°34' W 000°13'8 8.3
2016-Aug-16 03:34N 54°30' W 000°00'8 8.0
2016-Aug-16 02:34N 54°26' E 000°12'8 8.0
2016-Aug-16 01:34N 54°22' E 000°24'8 8.3
2016-Aug-16 00:33N 54°18' E 000°36'9 8.9
2016-Aug-15 23:33N 54°14' E 000°50'9 9.5
2016-Aug-15 22:34N 54°10' E 001°05'12 9.9
2016-Aug-15 21:22N 54°07' E 001°24'99 7.2
2016-Aug-15 07:34N 52°39' E 002°41'23 7.7
2016-Aug-15 04:33N 52°16' E 002°40'8 8.0
2016-Aug-15 03:33N 52°08' E 002°40'19 8.8
2016-Aug-15 01:26N 51°49' E 002°37'8 9.0
2016-Aug-15 00:33N 51°42' E 002°30'9 9.5
2016-Aug-14 23:33N 51°35' E 002°20'10 9.7
2016-Aug-14 22:33N 51°27' E 002°10'9 9.1
2016-Aug-14 21:33N 51°19' E 002°07'9 8.7
2016-Aug-14 20:34N 51°12' E 001°58'9 9.0
2016-Aug-14 19:34N 51°07' E 001°45'9 8.6
2016-Aug-14 18:33N 51°01' E 001°36'8 7.7
2016-Aug-14 17:34N 50°56' E 001°27'7 6.7
2016-Aug-14 16:34N 50°49' E 001°24'7 6.7
2016-Aug-14 15:34N 50°43' E 001°20'7 6.7
2016-Aug-14 14:34N 50°38' E 001°13'7 7.2
2016-Aug-14 13:31N 50°33' E 001°04'21 7.3
2016-Aug-14 10:33N 50°25' E 000°33'8 7.6
2016-Aug-14 09:31N 50°23' E 000°21'8 7.7
2016-Aug-14 08:32N 50°22' E 000°09'10 9.7
2016-Aug-14 07:33N 50°19' W 000°05'1110.6
2016-Aug-14 06:33N 50°16' W 000°21'20 9.9
2016-Aug-14 04:34N 50°10' W 000°51'  
Track history (hours):
 
Tides and Currents Weather Stations Pressure Air Temp Water Temp Dewpoint Dewpoint Depression Visibility Wind Speed Wind Dir Waves Ship Positions

Minerva Atlantica

Last reported at 2016-Aug-24 04:32 UTC. Time now 2016-Aug-24 04:52 UTC.
Position N 54°05' E 007°28'.

Length 250 m; draft 12 m.

Type: Ship (hazmat cat B). MMSI: 319161000.

Date/timePositionNaut miles runAvg speedWind from/ knotsBaromVisibWave heightAir tempDewpointWater temp
2016-Aug-24 04:32N 54°05' E 007°28'0 0.1
2016-Aug-24 03:32N 54°05' E 007°28'0 0.1
2016-Aug-24 02:29N 54°05' E 007°28'0 0.0
2016-Aug-24 01:32N 54°05' E 007°28'0 0.0
2016-Aug-24 00:32N 54°05' E 007°28'0 0.0
2016-Aug-23 23:32N 54°05' E 007°28'0 0.1
2016-Aug-23 22:32N 54°05' E 007°28'0 0.3
2016-Aug-23 21:32N 54°05' E 007°28'0 0.0
2016-Aug-23 20:32N 54°05' E 007°28'0 0.0
2016-Aug-23 19:32N 54°05' E 007°28'0 0.0
2016-Aug-23 18:32N 54°05' E 007°28'0 0.0
2016-Aug-23 17:32N 54°05' E 007°28'0 0.0
2016-Aug-23 16:32N 54°05' E 007°28'0 0.2
2016-Aug-23 15:32N 54°05' E 007°28'0 0.0
2016-Aug-23 14:23N 54°05' E 007°28'0 0.0
2016-Aug-23 13:32N 54°05' E 007°28'0 0.0
2016-Aug-23 12:29N 54°05' E 007°28'0 0.0
2016-Aug-23 11:32N 54°05' E 007°28'0 0.0
2016-Aug-23 10:33N 54°05' E 007°28'0 0.0
2016-Aug-23 09:32N 54°05' E 007°28'0 0.2
2016-Aug-23 08:32N 54°05' E 007°28'0 0.1
2016-Aug-23 07:32N 54°05' E 007°28'0 0.0
2016-Aug-23 06:32N 54°05' E 007°28'0 0.0
2016-Aug-23 05:32N 54°05' E 007°28'0 0.1
2016-Aug-23 04:32N 54°05' E 007°28'0 0.2
2016-Aug-23 03:32N 54°05' E 007°28'0 0.1
2016-Aug-23 02:32N 54°05' E 007°28'0 0.0
2016-Aug-23 01:32N 54°05' E 007°28'0 0.0
2016-Aug-23 00:32N 54°05' E 007°28'0 0.0
2016-Aug-22 23:32N 54°05' E 007°28'2 2.6
2016-Aug-22 22:33N 54°07' E 007°28'1211.8
2016-Aug-22 21:33N 54°09' E 007°08'1312.9
2016-Aug-22 20:33N 54°09' E 006°46'1312.4
2016-Aug-22 19:29N 54°09' E 006°24'1311.8
2016-Aug-22 18:24N 54°07' E 006°02'1011.7
2016-Aug-22 17:32N 54°06' E 005°45'1211.7
2016-Aug-22 16:33N 54°04' E 005°26'1211.8
2016-Aug-22 15:33N 54°02' E 005°06'1211.9
2016-Aug-22 14:33N 54°01' E 004°46'14713.4
2016-Aug-22 03:33N 54°20' E 000°37'1312.9
2016-Aug-22 02:34N 54°26' E 000°17'1212.5
2016-Aug-22 01:34N 54°32' W 000°02'1212.1
2016-Aug-22 00:33N 54°37' W 000°21'2411.9
2016-Aug-21 22:33N 54°45' W 000°60'10 0.3
2016-Aug-20 18:29N 54°38' W 001°10'6 6.8
2016-Aug-20 17:33N 54°43' W 001°05'3 3.3
2016-Aug-20 16:33N 54°44' W 000°60'4 3.9
2016-Aug-20 15:33N 54°43' W 000°53'0 0.1
2016-Aug-20 14:28N 54°44' W 000°53'0 0.0
2016-Aug-20 13:28N 54°44' W 000°53'0 0.0
2016-Aug-20 12:31N 54°44' W 000°53'0 0.0
2016-Aug-20 11:31N 54°44' W 000°53'0 0.0
2016-Aug-20 10:13N 54°44' W 000°53'0 0.0
2016-Aug-20 09:31N 54°44' W 000°53'0 0.0
2016-Aug-20 08:31N 54°44' W 000°53'0 0.0
2016-Aug-20 07:22N 54°44' W 000°53'0 0.1
2016-Aug-20 06:31N 54°44' W 000°53'0 0.0
2016-Aug-20 05:22N 54°43' W 000°53'0 0.2
2016-Aug-20 04:22N 54°43' W 000°53'0 0.1
2016-Aug-20 03:25N 54°43' W 000°53'0 0.2
2016-Aug-20 02:25N 54°44' W 000°53'0 0.0
2016-Aug-20 01:28N 54°44' W 000°53'0 0.0
2016-Aug-20 00:28N 54°43' W 000°53'0 0.0
2016-Aug-19 23:28N 54°43' W 000°53'0 0.0
2016-Aug-19 22:25N 54°43' W 000°53'0 0.0
2016-Aug-19 20:31N 54°43' W 000°53'0 0.0
2016-Aug-19 19:31N 54°43' W 000°53'0 0.0
2016-Aug-19 18:19N 54°43' W 000°53'0 0.1
2016-Aug-19 17:31N 54°43' W 000°53'0 0.0
2016-Aug-19 16:31N 54°43' W 000°53'0 0.0
2016-Aug-19 15:31N 54°43' W 000°53'0 0.0
2016-Aug-19 13:25N 54°43' W 000°53'0 0.0
2016-Aug-19 12:25N 54°43' W 000°53'0 0.0
2016-Aug-19 11:25N 54°43' W 000°53'0 0.0
2016-Aug-19 10:28N 54°43' W 000°53'0 0.0
2016-Aug-19 09:13N 54°43' W 000°53'0 0.0
2016-Aug-19 08:31N 54°43' W 000°53'0 0.0
2016-Aug-19 07:31N 54°43' W 000°53'0 0.1
2016-Aug-19 06:31N 54°43' W 000°53'0 0.1
2016-Aug-19 05:31N 54°43' W 000°53'0 0.0
2016-Aug-19 04:31N 54°43' W 000°53'0 0.0
2016-Aug-19 03:31N 54°43' W 000°53'0 0.0
2016-Aug-19 02:31N 54°43' W 000°53'0 0.1
2016-Aug-19 01:22N 54°43' W 000°53'0 0.0
2016-Aug-19 00:25N 54°43' W 000°53'0 0.0
2016-Aug-18 23:25N 54°43' W 000°53'0 0.0
2016-Aug-18 22:25N 54°43' W 000°53'0 0.0
2016-Aug-18 21:28N 54°43' W 000°53'0 0.0
2016-Aug-18 20:28N 54°43' W 000°53'0 0.0
2016-Aug-18 19:25N 54°43' W 000°53'0 0.0
2016-Aug-18 18:31N 54°43' W 000°53'0 0.1
2016-Aug-18 17:25N 54°43' W 000°53'0 0.1
2016-Aug-18 16:31N 54°43' W 000°53'0 0.0
2016-Aug-18 15:28N 54°43' W 000°53'0 0.0
2016-Aug-18 14:31N 54°43' W 000°53'0 0.0
2016-Aug-18 13:19N 54°43' W 000°53'0 0.0
2016-Aug-18 12:22N 54°43' W 000°53'0 0.0
2016-Aug-18 11:31N 54°43' W 000°53'0 0.0
2016-Aug-18 10:19N 54°43' W 000°53'0 0.0
2016-Aug-18 09:25N 54°43' W 000°53'0 0.0
2016-Aug-18 08:07N 54°43' W 000°53'0 0.0
2016-Aug-18 07:25N 54°43' W 000°53'0 0.0
2016-Aug-18 06:28N 54°43' W 000°53'0 0.2
2016-Aug-18 05:25N 54°43' W 000°53'0 0.1
2016-Aug-18 04:28N 54°43' W 000°53'0 0.0
2016-Aug-18 03:31N 54°43' W 000°53'0 0.0
2016-Aug-18 02:31N 54°43' W 000°53'0 0.1
2016-Aug-18 01:31N 54°43' W 000°53'0 0.2
2016-Aug-18 00:28N 54°43' W 000°53'0 0.0
2016-Aug-17 23:19N 54°43' W 000°53'0 0.0
2016-Aug-17 22:31N 54°43' W 000°53'0 0.0
2016-Aug-17 21:31N 54°43' W 000°53'0 0.0
2016-Aug-17 20:22N 54°43' W 000°53'0 0.0
2016-Aug-17 19:25N 54°43' W 000°53'0 0.0
2016-Aug-17 18:25N 54°43' W 000°53'0 0.0
2016-Aug-17 17:25N 54°43' W 000°53'0 0.0
2016-Aug-17 16:28N 54°43' W 000°53'0 0.2
2016-Aug-17 15:31N 54°43' W 000°53'0 0.1
2016-Aug-17 14:28N 54°43' W 000°53'0 0.1
2016-Aug-17 13:31N 54°43' W 000°53'0 0.2
2016-Aug-17 12:31N 54°43' W 000°53'0 0.0
2016-Aug-17 11:31N 54°43' W 000°53'0 0.0
2016-Aug-17 10:31N 54°43' W 000°53'0 0.0
2016-Aug-17 09:31N 54°43' W 000°53'0 0.0
2016-Aug-17 08:31N 54°43' W 000°53'0 0.0
2016-Aug-17 07:31N 54°43' W 000°53'0 0.0
2016-Aug-17 06:19N 54°43' W 000°53'0 0.2
2016-Aug-17 05:25N 54°43' W 000°53'0 0.1
2016-Aug-17 04:25N 54°43' W 000°53'0 0.0
2016-Aug-17 03:31N 54°43' W 000°53'0 0.0
2016-Aug-17 02:28N 54°43' W 000°53'0 0.0
2016-Aug-17 01:28N 54°43' W 000°53'0 0.2
2016-Aug-17 00:28N 54°43' W 000°53'0 0.0
2016-Aug-16 20:19N 54°43' W 000°53'0 0.0
2016-Aug-16 19:31N 54°43' W 000°53'0 0.0
2016-Aug-16 18:31N 54°43' W 000°53'0 0.0
2016-Aug-16 17:31N 54°43' W 000°53'0 0.0
2016-Aug-16 16:31N 54°43' W 000°53'0 0.0
2016-Aug-16 15:28N 54°43' W 000°53'0 0.0
2016-Aug-16 14:25N 54°43' W 000°53'0 0.0
2016-Aug-16 13:25N 54°43' W 000°53'0 0.0
2016-Aug-16 11:28N 54°43' W 000°53'0 0.0
2016-Aug-16 10:10N 54°43' W 000°53'0 0.0
2016-Aug-16 09:31N 54°43' W 000°53'0 0.0
2016-Aug-16 08:16N 54°43' W 000°53'0 0.5
2016-Aug-16 07:33N 54°44' W 000°53'25 8.3
2016-Aug-16 04:33N 54°34' W 000°13'8 8.3
2016-Aug-16 03:34N 54°30' W 000°00'8 8.0
2016-Aug-16 02:34N 54°26' E 000°12'8 8.0
2016-Aug-16 01:34N 54°22' E 000°24'8 8.3
2016-Aug-16 00:33N 54°18' E 000°36'9 8.9
2016-Aug-15 23:33N 54°14' E 000°50'9 9.5
2016-Aug-15 22:34N 54°10' E 001°05'12 9.9
2016-Aug-15 21:22N 54°07' E 001°24'99 7.2
2016-Aug-15 07:34N 52°39' E 002°41'23 7.7
2016-Aug-15 04:33N 52°16' E 002°40'8 8.0
2016-Aug-15 03:33N 52°08' E 002°40'19 8.8
2016-Aug-15 01:26N 51°49' E 002°37'8 9.0
2016-Aug-15 00:33N 51°42' E 002°30'9 9.5
2016-Aug-14 23:33N 51°35' E 002°20'10 9.7
2016-Aug-14 22:33N 51°27' E 002°10'9 9.1
2016-Aug-14 21:33N 51°19' E 002°07'9 8.7
2016-Aug-14 20:34N 51°12' E 001°58'9 9.0
2016-Aug-14 19:34N 51°07' E 001°45'9 8.6
2016-Aug-14 18:33N 51°01' E 001°36'8 7.7
2016-Aug-14 17:34N 50°56' E 001°27'7 6.7
2016-Aug-14 16:34N 50°49' E 001°24'7 6.7
2016-Aug-14 15:34N 50°43' E 001°20'7 6.7
2016-Aug-14 14:34N 50°38' E 001°13'7 7.2
2016-Aug-14 13:31N 50°33' E 001°04'21 7.3
2016-Aug-14 10:33N 50°25' E 000°33'8 7.6
2016-Aug-14 09:31N 50°23' E 000°21'8 7.7
2016-Aug-14 08:32N 50°22' E 000°09'10 9.7
2016-Aug-14 07:33N 50°19' W 000°05'1110.6
2016-Aug-14 06:33N 50°16' W 000°21'20 9.9
2016-Aug-14 04:34N 50°10' W 000°51'  

Dump ship's entire track history